Time;durP1;ratioP1;P1;durP2;ratioP2;P2;SDS_P1;SDS_P2;PMS_P1;PMS_P2;Temp;Humidity;BMP_temperature;BMP_pressure;BME280_temperature;BME280_humidity;BME280_pressure;Samples;Min_cycle;Max_cycle;Signal;HPM_P1;HPM_P2
2022/11/15 00:01:58;;;;;;;;;;;;;;;6.48;100.00;100275.69;4381138;32;34837;-79
2022/11/15 00:05:03;;;;;;;;;;;;;;;6.83;100.00;100274.09;4387917;32;34905;-79
2022/11/15 00:08:07;;;;;;;;;;;;;;;7.15;100.00;100271.97;4387551;32;35235;-79
2022/11/15 00:11:12;;;;;;;;;;;;;;;7.27;100.00;100268.16;4388927;32;34640;-78
2022/11/15 00:14:17;;;;;;;;;;;;;;;6.16;100.00;100275.84;4385765;32;34672;-79
2022/11/15 00:17:22;;;;;;;;;;;;;;;6.52;100.00;100272.16;4386560;32;36519;-79
2022/11/15 00:20:26;;;;;;;;;;;;;;;7.02;100.00;100277.94;4387283;32;36066;-78
2022/11/15 00:23:30;;;;;;;;;;;;;;;6.71;100.00;100272.44;4382386;32;34469;-79
2022/11/15 00:26:35;;;;;;;;;;;;;;;6.23;100.00;100263.66;4386341;32;34873;-78
2022/11/15 00:29:43;;;;;;;;;;;;;;;6.00;100.00;100277.66;4376947;32;34934;-78
2022/11/15 00:32:48;;;;;;;;;;;;;;;6.20;100.00;100266.06;4379765;32;34715;-78
2022/11/15 00:35:53;;;;;;;;;;;;;;;6.08;100.00;100266.28;4388815;32;35198;-78
2022/11/15 00:38:57;;;;;;;;;;;;;;;6.19;100.00;100257.06;4388784;32;34085;-78
2022/11/15 00:42:02;;;;;;;;;;;;;;;5.46;100.00;100256.94;4387943;32;35609;-79
2022/11/15 00:45:06;;;;;;;;;;;;;;;5.22;100.00;100255.69;4391824;32;35038;-78
2022/11/15 00:48:11;;;;;;;;;;;;;;;4.97;100.00;100259.84;4387059;32;35754;-79
2022/11/15 00:51:15;;;;;;;;;;;;;;;5.57;100.00;100258.66;4391227;32;34973;-78
2022/11/15 00:54:19;;;;;;;;;;;;;;;5.66;100.00;100260.87;4388280;32;34893;-79
2022/11/15 00:57:24;;;;;;;;;;;;;;;5.59;100.00;100255.69;4386077;32;36301;-78
2022/11/15 01:00:28;;;;;;;;;;;;;;;5.46;100.00;100253.41;4386956;32;35683;-79
2022/11/15 01:03:33;;;;;;;;;;;;;;;4.69;100.00;100241.94;4387452;32;34081;-79
2022/11/15 01:06:37;;;;;;;;;;;;;;;4.30;100.00;100242.09;4389591;32;34551;-79
2022/11/15 01:09:42;;;;;;;;;;;;;;;4.72;100.00;100236.84;4389170;32;35279;-79
2022/11/15 01:12:46;;;;;;;;;;;;;;;5.07;100.00;100234.69;4389856;32;35624;-79
2022/11/15 01:15:50;;;;;;;;;;;;;;;5.09;100.00;100236.03;4389603;32;34281;-78
2022/11/15 01:18:54;;;;;;;;;;;;;;;4.87;100.00;100228.00;4387862;32;34893;-79
2022/11/15 01:21:59;;;;;;;;;;;;;;;4.50;100.00;100223.31;4388659;32;36606;-79
2022/11/15 01:25:04;;;;;;;;;;;;;;;5.21;100.00;100221.44;4387731;32;36585;-79
2022/11/15 01:28:08;;;;;;;;;;;;;;;5.51;100.00;100216.22;4389152;32;34314;-79
2022/11/15 01:31:14;;;;;;;;;;;;;;;5.37;100.00;100220.47;4382096;32;35722;-79
2022/11/15 01:34:19;;;;;;;;;;;;;;;5.39;100.00;100218.31;4390595;32;35272;-79
2022/11/15 01:37:23;;;;;;;;;;;;;;;4.70;100.00;100219.97;4388340;32;34690;-79
2022/11/15 01:40:28;;;;;;;;;;;;;;;3.82;100.00;100222.00;4389289;32;34204;-79
2022/11/15 01:43:33;;;;;;;;;;;;;;;4.85;100.00;100219.28;4392816;32;35720;-79
2022/11/15 01:46:38;;;;;;;;;;;;;;;4.37;100.00;100210.16;4390530;32;35128;-79
2022/11/15 01:49:49;;;;;;;;;;;;;;;4.46;100.00;100205.91;4394995;32;34855;-79
2022/11/15 01:52:53;;;;;;;;;;;;;;;5.50;100.00;100213.78;4388358;32;34737;-79
2022/11/15 01:55:57;;;;;;;;;;;;;;;6.06;100.00;100211.31;4389216;32;34588;-79
2022/11/15 01:59:03;;;;;;;;;;;;;;;5.67;100.00;100208.16;4389594;32;35852;-79
2022/11/15 02:02:07;;;;;;;;;;;;;;;5.46;100.00;100207.22;4388320;32;34795;-79
2022/11/15 02:05:12;;;;;;;;;;;;;;;6.48;100.00;100208.44;4388772;32;33686;-79
2022/11/15 02:08:19;;;;;;;;;;;;;;;6.14;100.00;100202.63;4387907;32;35759;-79
2022/11/15 02:11:24;;;;;;;;;;;;;;;4.73;100.00;100191.50;4386711;32;36139;-78
2022/11/15 02:14:29;;;;;;;;;;;;;;;4.75;100.00;100181.19;4388249;32;34925;-79
2022/11/15 02:18:11;;;;;;;;;;;;;;;5.40;100.00;100182.72;4381975;32;33690;-79
2022/11/15 02:21:19;;;;;;;;;;;;;;;5.94;100.00;100175.38;4354432;32;34982;-79
2022/11/15 02:24:28;;;;;;;;;;;;;;;4.73;100.00;100178.75;4344929;32;35275;-79
2022/11/15 02:27:36;;;;;;;;;;;;;;;4.05;100.00;100183.78;4387715;32;34647;-79
2022/11/15 02:30:52;;;;;;;;;;;;;;;4.84;100.00;100181.53;4388599;32;32749;-79
2022/11/15 02:34:02;;;;;;;;;;;;;;;4.62;100.00;100170.78;4388222;32;34502;-79
2022/11/15 02:37:17;;;;;;;;;;;;;;;5.06;100.00;100170.56;4386925;32;35286;-78
2022/11/15 02:40:26;;;;;;;;;;;;;;;4.12;100.00;100166.50;4392190;32;34408;-79
2022/11/15 02:47:22;;;;;;;;;;;;;;;5.36;100.00;100170.75;4387693;32;34732;-79
2022/11/15 02:50:28;;;;;;;;;;;;;;;5.39;100.00;100169.41;4388419;32;35322;-79
2022/11/15 02:53:32;;;;;;;;;;;;;;;5.17;100.00;100174.97;4389402;32;34778;-79
2022/11/15 02:56:37;;;;;;;;;;;;;;;6.14;100.00;100174.62;4386793;32;33701;-79
2022/11/15 02:59:50;;;;;;;;;;;;;;;5.58;100.00;100161.63;4388191;32;35818;-78
2022/11/15 03:03:17;;;;;;;;;;;;;;;6.21;100.00;100165.13;4389359;32;35257;-79
2022/11/15 03:06:24;;;;;;;;;;;;;;;6.38;100.00;100156.72;4387380;32;35286;-79
2022/11/15 03:09:37;;;;;;;;;;;;;;;5.61;100.00;100161.09;4385560;32;34186;-79
2022/11/15 03:12:41;;;;;;;;;;;;;;;5.73;100.00;100169.03;4389579;32;35591;-79
2022/11/15 03:15:58;;;;;;;;;;;;;;;6.75;100.00;100161.09;4388005;32;35296;-79
2022/11/15 03:19:04;;;;;;;;;;;;;;;6.27;100.00;100164.03;4390540;32;35369;-79
2022/11/15 03:22:09;;;;;;;;;;;;;;;6.87;100.00;100155.37;4389788;32;32673;-79
2022/11/15 03:25:16;;;;;;;;;;;;;;;7.19;100.00;100150.41;4387279;32;34537;-79
2022/11/15 03:28:22;;;;;;;;;;;;;;;7.17;100.00;100146.31;4391816;32;35261;-79
2022/11/15 03:35:11;;;;;;;;;;;;;;;7.22;100.00;100129.94;4389542;32;34113;-79
2022/11/15 03:38:17;;;;;;;;;;;;;;;7.45;100.00;100128.50;4389393;32;34951;-79
2022/11/15 03:41:28;;;;;;;;;;;;;;;7.21;100.00;100123.69;4388880;32;36795;-79
2022/11/15 03:44:51;;;;;;;;;;;;;;;6.77;100.00;100118.03;4391219;32;34500;-79
2022/11/15 03:48:02;;;;;;;;;;;;;;;6.45;100.00;100121.06;4387298;32;33000;-79
2022/11/15 03:51:06;;;;;;;;;;;;;;;5.97;100.00;100113.09;4379604;32;34929;-79
2022/11/15 03:54:11;;;;;;;;;;;;;;;5.86;100.00;100101.37;4386071;32;35267;-79
2022/11/15 03:57:16;;;;;;;;;;;;;;;6.76;100.00;100110.97;4375635;32;34930;-79
2022/11/15 04:00:21;;;;;;;;;;;;;;;7.24;100.00;100126.97;4389156;32;34118;-79
2022/11/15 04:03:26;;;;;;;;;;;;;;;6.23;100.00;100110.41;4392082;32;35846;-79
2022/11/15 04:06:30;;;;;;;;;;;;;;;5.58;100.00;100102.63;4387901;32;35134;-79
2022/11/15 04:10:01;;;;;;;;;;;;;;;5.57;100.00;100097.44;4387844;32;34807;-79
2022/11/15 04:12:59;;;;;;;;;;;;;;;6.25;100.00;100089.19;4388310;32;34183;-79
2022/11/15 04:16:03;;;;;;;;;;;;;;;6.76;100.00;100100.88;4386725;32;34586;-79
2022/11/15 04:25:54;;;;;;;;;;;;;;;6.67;100.00;100107.97;4386153;32;34126;-79
2022/11/15 04:32:22;;;;;;;;;;;;;;;6.23;100.00;100107.69;4386862;32;35150;-79
2022/11/15 04:35:27;;;;;;;;;;;;;;;6.57;100.00;100101.72;4386387;32;35214;-79
2022/11/15 04:38:31;;;;;;;;;;;;;;;6.83;100.00;100083.44;4387981;32;33666;-79
2022/11/15 04:41:36;;;;;;;;;;;;;;;5.33;100.00;100078.88;4388834;32;33786;-79
2022/11/15 04:44:40;;;;;;;;;;;;;;;5.31;100.00;100080.22;4383127;32;35288;-79
2022/11/15 04:47:45;;;;;;;;;;;;;;;4.44;100.00;100077.81;4390328;32;34449;-78
2022/11/15 04:50:49;;;;;;;;;;;;;;;4.89;100.00;100098.19;4374461;32;34021;-78
2022/11/15 04:53:54;;;;;;;;;;;;;;;5.58;100.00;100080.06;4387397;32;35876;-78
2022/11/15 04:56:58;;;;;;;;;;;;;;;5.69;100.00;100086.34;4392041;32;35996;-79
2022/11/15 05:00:04;;;;;;;;;;;;;;;6.27;100.00;100087.03;4387925;32;34512;-79
2022/11/15 05:06:32;;;;;;;;;;;;;;;6.63;100.00;100085.13;4388255;32;34558;-79
2022/11/15 05:09:36;;;;;;;;;;;;;;;6.75;100.00;100085.66;4387600;32;35176;-78
2022/11/15 05:12:41;;;;;;;;;;;;;;;7.04;100.00;100089.69;4376309;32;34862;-79
2022/11/15 05:15:45;;;;;;;;;;;;;;;6.26;100.00;100097.09;4386881;32;35234;-79
2022/11/15 05:18:53;;;;;;;;;;;;;;;6.42;100.00;100088.94;4387994;32;33888;-78
2022/11/15 05:21:57;;;;;;;;;;;;;;;6.62;100.00;100083.47;4386796;32;34874;-78
2022/11/15 05:25:01;;;;;;;;;;;;;;;6.97;100.00;100076.31;4390226;32;34906;-78
2022/11/15 05:28:05;;;;;;;;;;;;;;;7.47;100.00;100081.91;4387331;32;34132;-78
2022/11/15 05:31:11;;;;;;;;;;;;;;;7.17;100.00;100076.28;4385692;32;34590;-79
2022/11/15 05:34:17;;;;;;;;;;;;;;;6.66;100.00;100062.78;4378281;32;35652;-78
2022/11/15 05:37:21;;;;;;;;;;;;;;;6.97;100.00;100062.72;4386802;32;34499;-78
2022/11/15 05:40:26;;;;;;;;;;;;;;;7.67;100.00;100059.97;4386780;32;34095;-79
2022/11/15 05:43:30;;;;;;;;;;;;;;;7.93;100.00;100063.38;4392334;32;34940;-78
2022/11/15 05:46:35;;;;;;;;;;;;;;;8.01;100.00;100061.97;4375556;32;36177;-78
2022/11/15 05:49:39;;;;;;;;;;;;;;;7.91;100.00;100062.00;4388609;32;34265;-79
2022/11/15 05:52:44;;;;;;;;;;;;;;;8.08;100.00;100067.91;4387198;32;34039;-78
2022/11/15 05:55:48;;;;;;;;;;;;;;;7.97;100.00;100066.34;4395825;32;34839;-78
2022/11/15 05:58:53;;;;;;;;;;;;;;;8.10;100.00;100069.25;4391649;32;35243;-78
2022/11/15 06:02:03;;;;;;;;;;;;;;;6.86;100.00;100063.81;4388016;32;33694;-78
2022/11/15 06:05:07;;;;;;;;;;;;;;;6.47;100.00;100056.28;4388069;32;34162;-78
2022/11/15 06:08:12;;;;;;;;;;;;;;;6.48;100.00;100049.72;4389570;32;34510;-78
2022/11/15 06:11:16;;;;;;;;;;;;;;;7.35;100.00;100057.69;4388348;32;36375;-78
2022/11/15 06:14:21;;;;;;;;;;;;;;;7.40;100.00;100066.66;4388857;32;34921;-78
2022/11/15 06:17:25;;;;;;;;;;;;;;;7.08;100.00;100058.06;4395503;32;35071;-78
2022/11/15 06:20:29;;;;;;;;;;;;;;;7.25;100.00;100058.53;4391804;32;34876;-78
2022/11/15 06:23:34;;;;;;;;;;;;;;;7.60;100.00;100056.75;4388123;32;35307;-78
2022/11/15 06:26:39;;;;;;;;;;;;;;;7.52;100.00;100060.87;4388820;32;34847;-78
2022/11/15 06:29:43;;;;;;;;;;;;;;;7.70;100.00;100055.88;4395757;32;34838;-78
2022/11/15 06:32:48;;;;;;;;;;;;;;;8.15;100.00;100067.59;4388712;32;35773;-78
2022/11/15 06:35:52;;;;;;;;;;;;;;;8.49;100.00;100070.34;4388987;32;34833;-78
2022/11/15 06:38:57;;;;;;;;;;;;;;;8.15;100.00;100062.12;4388614;32;34476;-78
2022/11/15 06:42:01;;;;;;;;;;;;;;;8.34;100.00;100066.63;4387061;32;33615;-78
2022/11/15 06:45:06;;;;;;;;;;;;;;;7.93;100.00;100070.75;4389031;32;35011;-78
2022/11/15 06:48:10;;;;;;;;;;;;;;;8.47;100.00;100062.44;4391300;32;36112;-78
2022/11/15 06:51:15;;;;;;;;;;;;;;;8.58;100.00;100062.34;4388040;32;34865;-78
2022/11/15 06:54:20;;;;;;;;;;;;;;;8.66;100.00;100069.94;4388306;32;34438;-78
2022/11/15 06:57:25;;;;;;;;;;;;;;;8.55;100.00;100075.47;4387031;32;35024;-78
2022/11/15 07:00:29;;;;;;;;;;;;;;;8.64;100.00;100070.19;4387940;32;36049;-78
2022/11/15 07:03:34;;;;;;;;;;;;;;;8.79;100.00;100063.78;4389328;32;34823;-78
2022/11/15 07:06:39;;;;;;;;;;;;;;;8.82;100.00;100056.91;4389202;32;34172;-78
2022/11/15 07:09:43;;;;;;;;;;;;;;;8.88;100.00;100056.59;4389261;32;34850;-78
2022/11/15 07:12:48;;;;;;;;;;;;;;;8.81;100.00;100053.38;4387079;32;33472;-78
2022/11/15 07:15:53;;;;;;;;;;;;;;;8.83;100.00;100048.44;4388487;32;35690;-78
2022/11/15 07:18:58;;;;;;;;;;;;;;;8.98;100.00;100045.53;4386967;32;34038;-78
2022/11/15 07:22:03;;;;;;;;;;;;;;;8.96;100.00;100042.28;4388275;32;35286;-78
2022/11/15 07:25:07;;;;;;;;;;;;;;;8.52;100.00;100037.00;4387729;32;34889;-78
2022/11/15 07:28:12;;;;;;;;;;;;;;;8.55;100.00;100042.69;4390274;32;35704;-78
2022/11/15 07:31:16;;;;;;;;;;;;;;;8.91;100.00;100045.09;4387703;32;34090;-78
2022/11/15 07:34:21;;;;;;;;;;;;;;;8.98;100.00;100042.00;4380038;32;34884;-78
2022/11/15 07:37:25;;;;;;;;;;;;;;;9.07;100.00;100033.97;4388811;32;35169;-78
2022/11/15 07:40:31;;;;;;;;;;;;;;;8.94;100.00;100041.78;4386586;32;34950;-78
2022/11/15 07:43:35;;;;;;;;;;;;;;;8.88;100.00;100045.66;4367370;32;33895;-78
2022/11/15 07:46:39;;;;;;;;;;;;;;;9.15;100.00;100050.53;4391033;32;34876;-78
2022/11/15 07:49:45;;;;;;;;;;;;;;;9.11;100.00;100054.16;4388817;32;36236;-78
2022/11/15 07:52:57;;;;;;;;;;;;;;;9.01;100.00;100058.63;4387225;32;35019;-78
2022/11/15 07:56:02;;;;;;;;;;;;;;;9.03;100.00;100044.69;4383292;32;34197;-79
2022/11/15 07:59:06;;;;;;;;;;;;;;;9.48;100.00;100030.72;4378308;32;34947;-79
2022/11/15 08:02:11;;;;;;;;;;;;;;;9.45;100.00;100038.41;4378964;32;35279;-79
2022/11/15 08:05:16;;;;;;;;;;;;;;;9.60;100.00;100033.84;4373631;32;35713;-81
2022/11/15 08:08:20;;;;;;;;;;;;;;;9.42;100.00;100041.75;4365267;32;34694;-81
2022/11/15 08:11:24;;;;;;;;;;;;;;;9.48;100.00;100047.97;4374020;32;33318;-82
2022/11/15 08:14:28;;;;;;;;;;;;;;;9.28;100.00;100038.09;4374978;32;36267;-81
2022/11/15 08:17:33;;;;;;;;;;;;;;;9.18;100.00;100019.06;4374539;32;33821;-81
2022/11/15 08:20:38;;;;;;;;;;;;;;;9.53;100.00;100006.03;4374980;32;34926;-81
2022/11/15 08:23:42;;;;;;;;;;;;;;;9.30;100.00;100003.06;4363846;32;35606;-81
2022/11/15 08:26:47;;;;;;;;;;;;;;;9.42;100.00;100003.44;4364517;32;34474;-80
2022/11/15 08:29:52;;;;;;;;;;;;;;;9.48;100.00;100004.19;4336189;32;873659;-81
2022/11/15 08:33:02;;;;;;;;;;;;;;;9.46;100.00;100007.22;4358595;32;34796;-80
2022/11/15 08:36:10;;;;;;;;;;;;;;;9.66;100.00;100005.31;4365482;32;35868;-81
2022/11/15 08:39:14;;;;;;;;;;;;;;;9.56;100.00;100010.91;4374024;32;35555;-81
2022/11/15 08:42:19;;;;;;;;;;;;;;;9.08;100.00;100000.03;4373990;32;34939;-80
2022/11/15 08:45:24;;;;;;;;;;;;;;;8.73;100.00;100000.16;4374555;32;33449;-81
2022/11/15 08:48:28;;;;;;;;;;;;;;;9.36;100.00;99993.69;4365732;32;32598;-80
2022/11/15 08:51:33;;;;;;;;;;;;;;;9.23;100.00;99987.00;4355447;32;34930;-81
2022/11/15 08:54:37;;;;;;;;;;;;;;;9.05;100.00;99978.78;4362579;32;34709;-81
2022/11/15 08:57:41;;;;;;;;;;;;;;;9.10;100.00;99975.97;4363837;32;33469;-81
2022/11/15 09:00:46;;;;;;;;;;;;;;;8.85;100.00;99968.91;4364335;32;35834;-82
2022/11/15 09:03:51;;;;;;;;;;;;;;;9.15;100.00;99979.47;4353666;32;33242;-81
2022/11/15 09:06:55;;;;;;;;;;;;;;;8.91;100.00;99979.50;4374023;32;34823;-81
2022/11/15 09:10:00;;;;;;;;;;;;;;;9.29;100.00;99984.22;4342935;32;34158;-81
2022/11/15 09:13:05;;;;;;;;;;;;;;;9.28;100.00;99977.09;4351890;32;34250;-81
2022/11/15 09:16:11;;;;;;;;;;;;;;;9.30;100.00;99980.38;4345597;32;35185;-81
2022/11/15 09:19:16;;;;;;;;;;;;;;;9.35;100.00;99977.56;4343277;32;34618;-82
2022/11/15 09:22:20;;;;;;;;;;;;;;;9.26;100.00;99980.16;4336578;32;35457;-82
2022/11/15 09:25:24;;;;;;;;;;;;;;;8.91;100.00;99978.69;4351988;32;34941;-82
2022/11/15 09:28:29;;;;;;;;;;;;;;;9.58;100.00;99981.34;4344210;32;33586;-82
2022/11/15 09:31:35;;;;;;;;;;;;;;;9.58;100.00;99973.13;4343246;32;33303;-82
2022/11/15 09:34:39;;;;;;;;;;;;;;;9.76;100.00;99966.84;4334522;32;34800;-82
2022/11/15 09:37:44;;;;;;;;;;;;;;;9.39;100.00;99963.03;4341094;32;34781;-82
2022/11/15 09:40:50;;;;;;;;;;;;;;;9.51;100.00;99953.56;4342144;32;35060;-82
2022/11/15 09:44:33;;;;;;;;;;;;;;;9.53;100.00;99951.31;4350311;32;34787;-81
2022/11/15 09:47:40;;;;;;;;;;;;;;;9.76;100.00;99957.81;4311767;33;34367;-82
2022/11/15 09:50:31;;;;;;;;;;;;;;;10.21;100.00;99969.94;4313125;33;34784;-82
2022/11/15 09:53:37;;;;;;;;;;;;;;;9.98;100.00;99959.94;4357058;32;35999;-82
2022/11/15 09:56:44;;;;;;;;;;;;;;;9.86;100.00;99955.72;4344605;32;34830;-82
2022/11/15 09:59:36;;;;;;;;;;;;;;;9.69;100.00;99955.47;4344117;32;34024;-82
2022/11/15 10:02:33;;;;;;;;;;;;;;;10.35;100.00;99951.62;4342787;32;34928;-82
2022/11/15 10:05:22;;;;;;;;;;;;;;;9.77;100.00;99949.31;4356922;32;37566;-82
2022/11/15 10:08:20;;;;;;;;;;;;;;;9.94;100.00;99942.50;4361796;32;35731;-82
2022/11/15 10:11:07;;;;;;;;;;;;;;;9.88;100.00;99937.09;4374764;32;35282;-82
2022/11/15 10:14:14;;;;;;;;;;;;;;;9.76;100.00;99928.53;4365488;32;34714;-82
2022/11/15 10:17:09;;;;;;;;;;;;;;;10.06;100.00;99924.47;4363635;32;34006;-82
2022/11/15 10:20:13;;;;;;;;;;;;;;;10.08;100.00;99918.72;4363494;32;34860;-82
2022/11/15 10:23:00;;;;;;;;;;;;;;;9.91;100.00;99924.75;4373729;32;33445;-82
2022/11/15 10:25:46;;;;;;;;;;;;;;;9.48;100.00;99921.31;4373843;32;32795;-82
2022/11/15 10:28:32;;;;;;;;;;;;;;;9.39;100.00;99905.59;4362104;32;33821;-82
2022/11/15 10:31:25;;;;;;;;;;;;;;;10.03;100.00;99905.09;4362871;32;34433;-82
2022/11/15 10:34:13;;;;;;;;;;;;;;;9.54;100.00;99906.47;4361626;32;33283;-82
2022/11/15 10:36:59;;;;;;;;;;;;;;;9.82;100.00;99897.25;4363901;32;33218;-82
2022/11/15 10:39:49;;;;;;;;;;;;;;;9.89;100.00;99900.41;4361511;32;34543;-82
2022/11/15 10:42:35;;;;;;;;;;;;;;;9.87;100.00;99904.53;4351502;32;34795;-82
2022/11/15 10:45:28;;;;;;;;;;;;;;;9.78;100.00;99901.69;4375680;32;34933;-82
2022/11/15 10:48:19;;;;;;;;;;;;;;;9.76;100.00;99890.25;4351081;32;34579;-82
2022/11/15 10:51:06;;;;;;;;;;;;;;;9.74;100.00;99886.97;4372422;32;35315;-82
2022/11/15 10:53:51;;;;;;;;;;;;;;;9.89;100.00;99885.91;4360719;32;34836;-82
2022/11/15 10:56:38;;;;;;;;;;;;;;;9.81;100.00;99881.91;4350975;32;33519;-82
2022/11/15 10:59:28;;;;;;;;;;;;;;;9.89;100.00;99872.22;4373448;32;32279;-82
2022/11/15 11:02:23;;;;;;;;;;;;;;;10.09;100.00;99868.31;4361941;32;35200;-82
2022/11/15 11:05:25;;;;;;;;;;;;;;;10.30;100.00;99855.06;4361016;32;34339;-82
2022/11/15 11:08:15;;;;;;;;;;;;;;;10.20;100.00;99855.25;4356088;32;34476;-82
2022/11/15 11:11:02;;;;;;;;;;;;;;;10.02;100.00;99849.53;4374179;32;34311;-82
2022/11/15 11:13:49;;;;;;;;;;;;;;;10.23;100.00;99849.97;4361911;32;36194;-82
2022/11/15 11:16:35;;;;;;;;;;;;;;;10.22;100.00;99853.03;4374526;32;34179;-82
2022/11/15 11:19:24;;;;;;;;;;;;;;;10.01;100.00;99850.63;4375154;32;32491;-82
2022/11/15 11:22:16;;;;;;;;;;;;;;;10.13;100.00;99833.72;4375251;32;36327;-82
2022/11/15 11:25:15;;;;;;;;;;;;;;;9.69;100.00;99838.63;4374992;32;34539;-82
2022/11/15 11:28:06;;;;;;;;;;;;;;;10.02;100.00;99844.06;4374577;32;34930;-82
2022/11/15 11:31:12;;;;;;;;;;;;;;;9.56;100.00;99836.69;4352872;32;33660;-82
2022/11/15 11:34:01;;;;;;;;;;;;;;;9.90;100.00;99836.34;4359839;32;34788;-82
2022/11/15 11:37:00;;;;;;;;;;;;;;;10.11;100.00;99828.56;4364086;32;35874;-82
2022/11/15 11:39:46;;;;;;;;;;;;;;;9.40;100.00;99825.16;4375491;32;34780;-82
2022/11/15 11:42:36;;;;;;;;;;;;;;;9.53;100.00;99828.22;4374795;32;34108;-82
2022/11/15 11:45:31;;;;;;;;;;;;;;;9.89;100.00;99834.72;4342530;32;35500;-82
2022/11/15 11:48:21;;;;;;;;;;;;;;;9.81;100.00;99832.66;4364154;32;35246;-82
2022/11/15 11:51:10;;;;;;;;;;;;;;;9.82;100.00;99828.84;4363823;32;34473;-82
2022/11/15 11:54:11;;;;;;;;;;;;;;;10.05;100.00;99815.28;4363079;32;33540;-83
2022/11/15 11:56:59;;;;;;;;;;;;;;;10.10;100.00;99813.25;4349612;32;35829;-84
2022/11/15 11:59:51;;;;;;;;;;;;;;;9.92;100.00;99811.41;4363622;32;36135;-83
2022/11/15 12:02:45;;;;;;;;;;;;;;;9.94;100.00;99803.72;4355424;32;33114;-83
2022/11/15 12:05:40;;;;;;;;;;;;;;;10.12;100.00;99793.78;4350178;32;32716;-83
2022/11/15 12:08:28;;;;;;;;;;;;;;;10.27;100.00;99788.00;4375145;32;34296;-83
2022/11/15 12:11:29;;;;;;;;;;;;;;;10.27;100.00;99785.25;4350409;32;35258;-83
2022/11/15 12:14:27;;;;;;;;;;;;;;;10.21;100.00;99774.69;4373459;32;35637;-83
2022/11/15 12:17:13;;;;;;;;;;;;;;;10.38;100.00;99780.41;4351607;32;33892;-84
2022/11/15 12:20:01;;;;;;;;;;;;;;;10.33;100.00;99784.06;4354127;32;34986;-83
2022/11/15 12:22:47;;;;;;;;;;;;;;;10.31;100.00;99772.59;4363857;32;34482;-83
2022/11/15 12:25:34;;;;;;;;;;;;;;;10.28;100.00;99767.75;4374162;32;34763;-83
2022/11/15 12:28:29;;;;;;;;;;;;;;;9.79;100.00;99768.41;4374943;32;32472;-83
2022/11/15 12:31:21;;;;;;;;;;;;;;;9.55;100.00;99757.63;4362978;32;33066;-83
2022/11/15 12:34:13;;;;;;;;;;;;;;;9.81;100.00;99761.50;4351025;32;34779;-82
2022/11/15 12:37:00;;;;;;;;;;;;;;;9.71;100.00;99758.19;4373532;32;35778;-82
2022/11/15 12:40:04;;;;;;;;;;;;;;;10.09;100.00;99753.31;4370946;32;34296;-82
2022/11/15 12:43:00;;;;;;;;;;;;;;;9.92;100.00;99748.44;4374643;32;32936;-76
2022/11/15 12:45:46;;;;;;;;;;;;;;;10.05;100.00;99739.44;4360273;32;34938;-76
2022/11/15 12:48:35;;;;;;;;;;;;;;;10.18;100.00;99729.56;4363946;32;35087;-76
2022/11/15 12:51:40;;;;;;;;;;;;;;;10.24;100.00;99727.53;4372907;32;33845;-76
2022/11/15 12:54:28;;;;;;;;;;;;;;;10.00;100.00;99736.00;4359540;32;34903;-76
2022/11/15 12:57:15;;;;;;;;;;;;;;;9.79;100.00;99735.56;4372882;32;35292;-76
2022/11/15 13:00:07;;;;;;;;;;;;;;;9.77;100.00;99744.09;4373539;32;35883;-76
2022/11/15 13:03:12;;;;;;;;;;;;;;;9.85;100.00;99734.37;4363613;32;33581;-76
2022/11/15 13:05:59;;;;;;;;;;;;;;;10.18;100.00;99746.00;4363998;32;34412;-75
2022/11/15 13:08:47;;;;;;;;;;;;;;;10.05;100.00;99744.09;4362553;32;36097;-76
2022/11/15 13:11:47;;;;;;;;;;;;;;;9.90;100.00;99740.56;4370580;32;34801;-76
2022/11/15 13:14:36;;;;;;;;;;;;;;;9.97;100.00;99742.87;4361089;32;33913;-76
2022/11/15 13:17:22;;;;;;;;;;;;;;;9.95;100.00;99738.81;4373020;32;34574;-75
2022/11/15 13:20:11;;;;;;;;;;;;;;;9.48;100.00;99724.38;4372621;32;33291;-75
2022/11/15 13:23:14;;;;;;;;;;;;;;;9.47;100.00;99712.63;4373782;32;33177;-75
2022/11/15 13:26:01;;;;;;;;;;;;;;;9.65;100.00;99713.69;4362183;32;32308;-75
2022/11/15 13:28:49;;;;;;;;;;;;;;;9.61;100.00;99709.91;4376007;32;35343;-75
2022/11/15 13:31:37;;;;;;;;;;;;;;;9.91;100.00;99712.06;4362679;32;35101;-75
2022/11/15 13:34:30;;;;;;;;;;;;;;;10.06;100.00;99710.13;4374107;32;34318;-75
2022/11/15 13:37:36;;;;;;;;;;;;;;;9.58;100.00;99703.13;4367472;32;34966;-78
2022/11/15 13:40:32;;;;;;;;;;;;;;;9.44;100.00;99692.16;4375578;32;35855;-79
2022/11/15 13:43:22;;;;;;;;;;;;;;;9.92;100.00;99685.50;4375031;32;35285;-78
2022/11/15 13:46:11;;;;;;;;;;;;;;;9.77;100.00;99692.09;4375958;32;35965;-78
2022/11/15 13:48:59;;;;;;;;;;;;;;;9.87;100.00;99688.34;4375358;32;33632;-78
2022/11/15 13:51:50;;;;;;;;;;;;;;;9.74;100.00;99695.44;4363516;32;35422;-78
2022/11/15 13:54:51;;;;;;;;;;;;;;;9.61;100.00;99683.38;4362999;32;33353;-78
2022/11/15 13:57:37;;;;;;;;;;;;;;;9.69;100.00;99671.72;4373484;32;35249;-78
2022/11/15 14:00:34;;;;;;;;;;;;;;;9.42;100.00;99667.06;4374664;32;33674;-79
2022/11/15 14:03:31;;;;;;;;;;;;;;;9.62;100.00;99673.22;4364306;32;34797;-78
2022/11/15 14:06:19;;;;;;;;;;;;;;;9.60;100.00;99667.28;4362114;32;35126;-78
2022/11/15 14:09:09;;;;;;;;;;;;;;;9.54;100.00;99669.28;4361979;32;35255;-78
2022/11/15 14:11:55;;;;;;;;;;;;;;;9.34;100.00;99670.50;4371661;32;33719;-79
2022/11/15 14:14:45;;;;;;;;;;;;;;;9.52;100.00;99673.44;4361488;32;33636;-79
2022/11/15 14:17:30;;;;;;;;;;;;;;;9.70;100.00;99669.78;4362782;32;33538;-79
2022/11/15 14:20:26;;;;;;;;;;;;;;;9.60;100.00;99668.06;4376322;32;35676;-78
2022/11/15 14:23:27;;;;;;;;;;;;;;;9.64;100.00;99668.28;4375317;32;33881;-78
2022/11/15 14:26:27;;;;;;;;;;;;;;;9.57;100.00;99656.94;4354072;32;34254;-79
2022/11/15 14:29:29;;;;;;;;;;;;;;;9.27;100.00;99658.31;4376549;32;36143;-79
2022/11/15 14:32:17;;;;;;;;;;;;;;;9.30;100.00;99652.25;4364563;32;34843;-78
2022/11/15 14:35:03;;;;;;;;;;;;;;;9.49;100.00;99643.97;4374784;32;34841;-79
2022/11/15 14:37:50;;;;;;;;;;;;;;;9.55;100.00;99643.56;4364455;32;34635;-79
2022/11/15 14:40:35;;;;;;;;;;;;;;;9.12;100.00;99654.75;4365108;32;36114;-79
2022/11/15 14:43:21;;;;;;;;;;;;;;;9.29;100.00;99645.97;4365744;32;35212;-79
2022/11/15 14:46:07;;;;;;;;;;;;;;;9.29;100.00;99643.25;4377188;32;33669;-79
2022/11/15 14:48:53;;;;;;;;;;;;;;;9.38;100.00;99637.88;4364710;32;34569;-79
2022/11/15 14:51:39;;;;;;;;;;;;;;;9.51;100.00;99631.62;4376033;32;36107;-79
2022/11/15 14:54:25;;;;;;;;;;;;;;;9.16;100.00;99633.91;4375788;32;35718;-79
2022/11/15 14:57:11;;;;;;;;;;;;;;;9.09;100.00;99635.41;4364538;32;33638;-79
2022/11/15 14:59:56;;;;;;;;;;;;;;;9.36;100.00;99619.06;4375531;32;33769;-78
2022/11/15 15:02:56;;;;;;;;;;;;;;;9.72;100.00;99632.00;4366605;32;35282;-79
2022/11/15 15:05:43;;;;;;;;;;;;;;;9.51;100.00;99625.34;4375501;32;34891;-78
2022/11/15 15:08:28;;;;;;;;;;;;;;;8.87;100.00;99623.22;4375584;32;32362;-79
2022/11/15 15:11:20;;;;;;;;;;;;;;;9.49;100.00;99617.44;4373424;32;35196;-79
2022/11/15 15:14:07;;;;;;;;;;;;;;;9.73;100.00;99622.66;4356707;32;34988;-78
2022/11/15 15:16:53;;;;;;;;;;;;;;;9.23;100.00;99625.31;4370930;32;34974;-78
2022/11/15 15:19:39;;;;;;;;;;;;;;;9.11;100.00;99622.28;4374019;32;33938;-78
2022/11/15 15:22:26;;;;;;;;;;;;;;;9.58;100.00;99609.31;4375505;32;35781;-79
2022/11/15 15:25:25;;;;;;;;;;;;;;;9.50;100.00;99615.50;4364178;32;36084;-78
2022/11/15 15:28:12;;;;;;;;;;;;;;;9.25;100.00;99623.09;4362793;32;35460;-78
2022/11/15 15:30:58;;;;;;;;;;;;;;;9.31;100.00;99623.81;4366130;32;34142;-78
2022/11/15 15:33:44;;;;;;;;;;;;;;;9.64;100.00;99616.28;4361020;32;34179;-79
2022/11/15 15:36:30;;;;;;;;;;;;;;;8.91;100.00;99617.97;4371670;32;35155;-79
2022/11/15 15:39:16;;;;;;;;;;;;;;;9.24;100.00;99611.31;4364351;32;35678;-80
2022/11/15 15:42:03;;;;;;;;;;;;;;;9.55;100.00;99618.94;4375502;32;33704;-80
2022/11/15 15:44:50;;;;;;;;;;;;;;;9.40;100.00;99619.25;4374325;32;35840;-80
2022/11/15 15:47:37;;;;;;;;;;;;;;;9.09;100.00;99608.91;4363849;32;35481;-80
2022/11/15 15:50:23;;;;;;;;;;;;;;;9.56;100.00;99611.53;4373937;32;35160;-80